createdAt,value
2018-05-12T00:00:43.170Z,28.77
2018-05-12T00:03:11.519Z,29.27
2018-05-12T00:05:39.870Z,28.97
2018-05-12T00:08:08.209Z,29.83
2018-05-12T00:10:36.567Z,29.37
2018-05-12T00:13:04.994Z,28.77
2018-05-12T00:15:33.337Z,26.87
2018-05-12T00:18:01.691Z,30.57
2018-05-12T00:20:30.017Z,25.73
2018-05-12T00:22:58.359Z,30.90
2018-05-12T00:25:26.695Z,28.50
2018-05-12T00:27:55.022Z,29.60
2018-05-12T00:30:23.411Z,28.37
2018-05-12T00:32:51.812Z,29.33
2018-05-12T00:35:20.232Z,31.33
2018-05-12T00:37:48.562Z,31.30
2018-05-12T00:40:16.919Z,31.73
2018-05-12T00:42:45.268Z,31.50
2018-05-12T00:45:13.622Z,34.73
2018-05-12T00:47:41.998Z,32.87
2018-05-12T00:50:10.351Z,34.07
2018-05-12T00:52:39.360Z,31.03
2018-05-12T00:55:07.765Z,33.70
2018-05-12T00:57:36.150Z,35.37
2018-05-12T01:00:04.486Z,34.20
2018-05-12T01:02:34.125Z,35.73
2018-05-12T01:05:02.445Z,34.93
2018-05-12T01:07:30.788Z,35.40
2018-05-12T01:09:59.379Z,34.37
2018-05-12T01:12:27.711Z,34.03
2018-05-12T01:14:56.040Z,36.23
2018-05-12T01:17:24.408Z,34.47
2018-05-12T01:19:52.741Z,33.60
2018-05-12T01:22:21.206Z,33.17
2018-05-12T01:24:49.615Z,33.00
2018-05-12T01:27:18.006Z,33.93
2018-05-12T01:29:46.537Z,33.83
2018-05-12T01:32:15.796Z,33.03
2018-05-12T01:34:44.149Z,34.47
2018-05-12T01:37:12.850Z,36.27
2018-05-12T01:39:41.183Z,33.60
2018-05-12T01:42:09.574Z,37.17
2018-05-12T01:44:38.787Z,34.17
2018-05-12T01:47:07.116Z,34.17
2018-05-12T01:49:35.461Z,37.30
2018-05-12T01:52:03.853Z,35.83
2018-05-12T01:54:32.255Z,34.37
2018-05-12T01:57:00.633Z,34.50
2018-05-12T01:59:29.027Z,35.00
2018-05-12T02:01:57.434Z,34.50
2018-05-12T02:04:25.774Z,35.60
2018-05-12T02:06:54.109Z,33.57
2018-05-12T02:09:22.477Z,36.33
2018-05-12T02:11:51.870Z,33.43
2018-05-12T02:14:20.222Z,39.50
2018-05-12T02:16:50.450Z,35.20
2018-05-12T02:19:18.846Z,37.37
2018-05-12T02:21:47.230Z,37.47
2018-05-12T02:24:15.588Z,37.33
2018-05-12T02:26:43.985Z,36.37
2018-05-12T02:29:12.325Z,37.13
2018-05-12T02:31:40.657Z,38.07
2018-05-12T02:34:09.001Z,39.43
2018-05-12T02:36:37.375Z,38.90
2018-05-12T02:39:05.754Z,36.53
2018-05-12T02:41:34.101Z,37.47
2018-05-12T02:44:02.484Z,37.83
2018-05-12T02:46:30.833Z,37.10
2018-05-12T02:48:59.173Z,37.43
2018-05-12T02:51:29.352Z,40.60
2018-05-12T02:53:57.668Z,38.00
2018-05-12T02:56:26.021Z,40.43
2018-05-12T02:58:54.341Z,40.93
2018-05-12T03:01:22.706Z,39.17
2018-05-12T03:03:51.037Z,39.70
2018-05-12T03:06:19.387Z,43.03
2018-05-12T03:08:47.742Z,40.30
2018-05-12T03:11:16.124Z,43.43
2018-05-12T03:13:44.541Z,44.03
2018-05-12T03:16:12.890Z,40.30
2018-05-12T03:18:41.282Z,44.43
2018-05-12T03:21:09.634Z,43.47
2018-05-12T03:23:37.972Z,41.27
2018-05-12T03:26:06.294Z,43.83
2018-05-12T03:28:34.641Z,46.27
2018-05-12T03:31:04.419Z,43.20
2018-05-12T03:33:32.875Z,42.77
2018-05-12T03:36:01.227Z,41.97
2018-05-12T03:38:33.867Z,42.43
2018-05-12T03:41:02.197Z,41.67
2018-05-12T03:43:30.534Z,43.77
2018-05-12T03:45:58.893Z,43.90
2018-05-12T03:48:28.161Z,44.00
2018-05-12T03:50:56.532Z,40.33
2018-05-12T03:53:24.890Z,41.40
2018-05-12T03:55:53.338Z,42.60
2018-05-12T03:58:21.712Z,42.03
2018-05-12T04:00:50.052Z,42.47
2018-05-12T04:03:18.412Z,41.20
2018-05-12T04:05:58.660Z,42.33
2018-05-12T04:08:38.999Z,41.47
2018-05-12T04:11:19.409Z,40.63
2018-05-12T04:13:47.856Z,38.83
2018-05-12T04:16:16.242Z,40.97
2018-05-12T04:18:44.596Z,42.70
2018-05-12T04:21:12.960Z,41.10
2018-05-12T04:23:41.378Z,40.67
2018-05-12T04:26:09.810Z,39.87
2018-05-12T04:28:38.098Z,39.07
2018-05-12T04:31:06.436Z,39.60
2018-05-12T04:33:34.758Z,39.20
2018-05-12T04:36:03.129Z,38.37
2018-05-12T04:38:31.661Z,39.93
2018-05-12T04:41:00.004Z,37.93
2018-05-12T04:43:28.348Z,39.93
2018-05-12T04:45:56.689Z,41.97
2018-05-12T04:48:25.093Z,41.03
2018-05-12T04:50:53.448Z,38.40
2018-05-12T04:53:21.883Z,41.80
2018-05-12T04:55:50.221Z,43.13
2018-05-12T04:58:18.576Z,40.30
2018-05-12T05:00:46.932Z,39.93
2018-05-12T05:03:15.369Z,42.33
2018-05-12T05:05:43.711Z,40.50
2018-05-12T05:08:12.226Z,36.90
2018-05-12T05:10:41.588Z,37.10
2018-05-12T05:13:09.914Z,35.70
2018-05-12T05:15:38.447Z,35.80
2018-05-12T05:18:06.793Z,35.60
2018-05-12T05:20:35.201Z,35.13
2018-05-12T05:23:03.546Z,35.87
2018-05-12T05:25:31.882Z,35.60
2018-05-12T05:28:00.292Z,37.30
2018-05-12T05:30:28.638Z,36.60
2018-05-12T05:32:56.988Z,35.87
2018-05-12T05:35:25.332Z,35.03
2018-05-12T05:37:53.663Z,36.40
2018-05-12T05:40:22.042Z,37.97
2018-05-12T05:42:50.388Z,38.40
2018-05-12T05:45:18.834Z,36.97
2018-05-12T05:47:47.186Z,34.73
2018-05-12T05:50:15.611Z,37.60
2018-05-12T05:52:43.898Z,33.50
2018-05-12T05:55:12.256Z,37.20
2018-05-12T05:57:41.526Z,36.20
2018-05-12T06:00:09.889Z,35.73
2018-05-12T06:02:38.218Z,34.57
2018-05-12T06:05:06.574Z,34.47
2018-05-12T06:07:34.973Z,37.23
2018-05-12T06:10:03.370Z,39.27
2018-05-12T06:12:31.711Z,36.43
2018-05-12T06:15:00.141Z,35.87
2018-05-12T06:17:28.563Z,34.00
2018-05-12T06:19:56.907Z,35.33
2018-05-12T06:22:25.260Z,35.07
2018-05-12T06:24:53.595Z,36.00
2018-05-12T06:27:22.026Z,34.50
2018-05-12T06:29:50.523Z,35.27
2018-05-12T06:32:18.846Z,37.53
2018-05-12T06:34:47.580Z,35.00
2018-05-12T06:37:15.915Z,34.23
2018-05-12T06:39:44.264Z,35.40
2018-05-12T06:42:12.719Z,33.63
2018-05-12T06:44:41.200Z,34.00
2018-05-12T06:47:09.549Z,35.47
2018-05-12T06:49:37.948Z,32.73
2018-05-12T06:52:06.299Z,30.67
2018-05-12T06:54:34.681Z,34.23
2018-05-12T06:57:03.032Z,33.00
2018-05-12T06:59:31.371Z,32.13
2018-05-12T07:01:59.793Z,31.17
2018-05-12T07:04:28.225Z,30.73
2018-05-12T07:06:56.627Z,34.07
2018-05-12T07:09:25.508Z,30.83
2018-05-12T07:11:53.882Z,30.97
2018-05-12T07:14:22.279Z,33.37
2018-05-12T07:16:50.627Z,33.37
2018-05-12T07:19:19.005Z,31.90
2018-05-12T07:21:47.522Z,29.83
2018-05-12T07:24:15.868Z,33.33
2018-05-12T07:26:44.244Z,31.90
2018-05-12T07:29:16.509Z,31.17
2018-05-12T07:31:44.866Z,29.70
2018-05-12T07:34:14.405Z,25.93
2018-05-12T07:36:42.778Z,30.43
2018-05-12T07:39:11.131Z,30.23
2018-05-12T07:41:39.770Z,30.70
2018-05-12T07:44:08.150Z,26.90
2018-05-12T07:46:36.503Z,27.13
2018-05-12T07:49:04.878Z,28.00
2018-05-12T07:51:35.104Z,29.20
2018-05-12T07:54:03.404Z,26.80
2018-05-12T07:56:31.752Z,25.67
2018-05-12T07:59:00.158Z,30.20
2018-05-12T08:01:28.526Z,28.73
2018-05-12T08:03:56.880Z,27.30
2018-05-12T08:06:25.228Z,23.57
2018-05-12T08:08:53.683Z,31.90
2018-05-12T08:11:22.017Z,28.63
2018-05-12T08:13:50.343Z,25.83
2018-05-12T08:16:18.705Z,27.57
2018-05-12T08:18:47.098Z,25.07
2018-05-12T08:21:16.881Z,27.47
2018-05-12T08:23:45.225Z,24.15
2018-05-12T08:26:13.584Z,27.05
2018-05-12T08:28:41.932Z,27.58
2018-05-12T08:31:10.364Z,24.45
2018-05-12T08:33:38.808Z,24.95
2018-05-12T08:36:08.231Z,22.80
2018-05-12T08:38:36.573Z,23.58
2018-05-12T08:41:04.911Z,24.35
2018-05-12T08:43:33.252Z,28.08
2018-05-12T08:46:01.620Z,24.30
2018-05-12T08:48:29.966Z,24.23
2018-05-12T08:50:58.317Z,24.02
2018-05-12T08:53:26.654Z,24.02
2018-05-12T08:55:55.009Z,25.08
2018-05-12T08:58:23.405Z,23.77
2018-05-12T09:00:51.885Z,25.40
2018-05-12T09:03:20.229Z,23.20
2018-05-12T09:05:48.663Z,23.38
2018-05-12T09:08:17.012Z,23.50
2018-05-12T09:10:45.438Z,22.70
2018-05-12T09:13:13.779Z,24.67
2018-05-12T09:15:42.283Z,22.27
2018-05-12T09:18:10.643Z,23.80
2018-05-12T09:20:39.000Z,25.35
2018-05-12T09:23:07.356Z,24.48
2018-05-12T09:25:35.771Z,23.27
2018-05-12T09:28:04.106Z,21.90
2018-05-12T09:30:32.711Z,25.55
2018-05-12T09:33:01.064Z,25.60
2018-05-12T09:35:29.411Z,25.25
2018-05-12T09:37:57.769Z,23.40
2018-05-12T09:40:26.090Z,19.45
2018-05-12T09:42:54.447Z,24.27
2018-05-12T09:45:22.777Z,23.75
2018-05-12T09:47:51.211Z,24.83
2018-05-12T09:50:19.540Z,22.05
2018-05-12T09:52:47.905Z,22.92
2018-05-12T09:55:16.309Z,22.40
2018-05-12T09:57:44.683Z,21.80
2018-05-12T10:00:13.029Z,21.83
2018-05-12T10:02:41.363Z,21.33
2018-05-12T10:05:09.707Z,21.67
2018-05-12T10:07:38.067Z,21.40
2018-05-12T10:10:06.442Z,23.87
2018-05-12T10:12:34.779Z,19.83
2018-05-12T10:15:03.231Z,21.52
2018-05-12T10:17:31.561Z,19.17
2018-05-12T10:20:00.015Z,20.23
2018-05-12T10:22:28.389Z,21.10
2018-05-12T10:24:56.804Z,22.00
2018-05-12T10:27:25.149Z,21.60
2018-05-12T10:29:53.676Z,21.30
2018-05-12T10:32:23.053Z,20.90
2018-05-12T10:34:51.419Z,19.25
2018-05-12T10:37:19.765Z,19.15
2018-05-12T10:39:48.827Z,19.60
2018-05-12T10:42:17.177Z,19.05
2018-05-12T10:44:45.532Z,17.55
2018-05-12T10:47:13.959Z,17.48
2018-05-12T10:49:42.292Z,17.70
2018-05-12T10:52:10.638Z,16.98
2018-05-12T10:54:39.020Z,18.00
2018-05-12T10:57:07.370Z,15.88
2018-05-12T10:59:35.711Z,16.87
2018-05-12T11:02:04.132Z,16.48
2018-05-12T11:04:32.457Z,16.25
2018-05-12T11:07:00.801Z,15.85
2018-05-12T11:09:29.187Z,16.67
2018-05-12T11:11:57.546Z,15.48
2018-05-12T11:14:25.903Z,16.12
2018-05-12T11:16:54.266Z,15.13
2018-05-12T11:19:22.619Z,17.25
2018-05-12T11:21:51.041Z,14.27
2018-05-12T11:24:19.386Z,15.30
2018-05-12T11:26:47.730Z,13.88
2018-05-12T11:29:16.125Z,18.77
2018-05-12T11:31:44.521Z,17.92
2018-05-12T11:34:12.876Z,16.87
2018-05-12T11:36:41.309Z,15.45
2018-05-12T11:39:09.649Z,17.30
2018-05-12T11:41:38.130Z,16.45
2018-05-12T11:44:06.472Z,17.12
2018-05-12T11:46:34.885Z,17.62
2018-05-12T11:49:03.395Z,16.42
2018-05-12T11:51:36.687Z,15.75
2018-05-12T11:54:05.145Z,16.75
2018-05-12T11:56:33.389Z,16.42
2018-05-12T11:59:01.759Z,16.33
2018-05-12T12:01:30.188Z,16.23
2018-05-12T12:03:58.542Z,14.85
2018-05-12T12:06:26.967Z,15.45
2018-05-12T12:08:55.305Z,15.73
2018-05-12T12:11:23.705Z,14.40
2018-05-12T12:13:52.036Z,13.02
2018-05-12T12:16:21.885Z,12.43
2018-05-12T12:18:50.829Z,10.60
2018-05-12T12:21:19.174Z,10.60
2018-05-12T12:23:48.069Z,13.98
2018-05-12T12:26:16.409Z,12.70
2018-05-12T12:28:44.762Z,11.85
2018-05-12T12:31:13.117Z,15.30
2018-05-12T12:33:41.445Z,11.20
2018-05-12T12:36:09.796Z,13.10
2018-05-12T12:38:38.136Z,12.30
2018-05-12T12:41:06.498Z,12.93
2018-05-12T12:43:34.826Z,11.43
2018-05-12T12:46:03.173Z,8.88
2018-05-12T12:48:31.549Z,9.45
2018-05-12T12:50:59.944Z,6.97
2018-05-12T12:53:28.541Z,8.80
2018-05-12T12:55:56.929Z,9.65
2018-05-12T12:58:25.347Z,10.82
2018-05-12T13:00:53.686Z,9.43
2018-05-12T13:03:23.283Z,8.00
2018-05-12T13:05:51.634Z,9.85
2018-05-12T13:08:19.970Z,9.82
2018-05-12T13:10:48.455Z,11.52
2018-05-12T13:13:16.924Z,10.10
2018-05-12T13:15:45.243Z,10.27
2018-05-12T13:18:13.610Z,10.48
2018-05-12T13:20:43.535Z,10.50
2018-05-12T13:23:11.875Z,10.23
2018-05-12T13:25:40.309Z,11.20
2018-05-12T13:28:08.641Z,9.85
2018-05-12T13:30:36.979Z,11.52
2018-05-12T13:33:05.329Z,11.38
2018-05-12T13:35:33.709Z,11.00
2018-05-12T13:38:02.060Z,10.07
2018-05-12T13:40:30.410Z,11.10
2018-05-12T13:42:58.765Z,11.48
2018-05-12T13:45:27.221Z,10.40
2018-05-12T13:47:55.640Z,10.77
2018-05-12T13:50:24.013Z,10.43
2018-05-12T13:52:52.449Z,10.23
2018-05-12T13:55:20.795Z,8.93
2018-05-12T13:57:49.304Z,9.00
2018-05-12T14:00:17.607Z,8.65
2018-05-12T14:02:45.931Z,7.90
2018-05-12T14:05:14.260Z,8.23
2018-05-12T14:07:42.593Z,8.88
2018-05-12T14:10:10.913Z,8.38
2018-05-12T14:12:39.368Z,8.52
2018-05-12T14:15:07.693Z,11.35
2018-05-12T14:17:36.024Z,9.32
2018-05-12T14:20:05.027Z,9.10
2018-05-12T14:22:33.391Z,10.15
2018-05-12T14:25:01.735Z,10.15
2018-05-12T14:27:30.122Z,10.32
2018-05-12T14:29:58.620Z,9.02
2018-05-12T14:32:26.944Z,8.15
2018-05-12T14:34:55.293Z,10.30
2018-05-12T14:37:23.621Z,7.95
2018-05-12T14:39:51.988Z,8.73
2018-05-12T14:42:20.299Z,11.27
2018-05-12T14:44:48.662Z,9.45
2018-05-12T14:47:17.051Z,9.95
2018-05-12T14:49:46.171Z,10.10
2018-05-12T14:52:14.527Z,12.27
2018-05-12T14:54:42.934Z,12.10
2018-05-12T14:57:11.358Z,11.30
2018-05-12T14:59:39.830Z,10.85
2018-05-12T15:02:08.173Z,10.65
2018-05-12T15:04:36.778Z,10.75
2018-05-12T15:07:05.105Z,10.23
2018-05-12T15:09:33.441Z,10.50
2018-05-12T15:12:01.897Z,10.05
2018-05-12T15:14:30.270Z,9.70
2018-05-12T15:16:58.630Z,10.25
2018-05-12T15:19:27.023Z,10.07
2018-05-12T15:21:56.373Z,11.02
2018-05-12T15:24:25.283Z,10.45
2018-05-12T15:26:53.606Z,9.27
2018-05-12T15:29:21.974Z,9.70
2018-05-12T15:31:50.451Z,10.05
2018-05-12T15:34:18.773Z,10.07
2018-05-12T15:36:47.174Z,11.60
2018-05-12T15:39:15.556Z,12.27
2018-05-12T15:41:43.929Z,13.45
2018-05-12T15:44:12.366Z,11.45
2018-05-12T15:46:40.864Z,12.50
2018-05-12T15:49:09.233Z,11.75
2018-05-12T15:51:37.619Z,10.38
2018-05-12T15:54:05.973Z,10.82
2018-05-12T15:56:34.401Z,9.73
2018-05-12T15:59:02.743Z,9.85
2018-05-12T16:01:31.129Z,10.00
2018-05-12T16:03:59.451Z,10.43
2018-05-12T16:06:27.806Z,10.27
2018-05-12T16:08:56.146Z,10.13
2018-05-12T16:11:24.552Z,10.83
2018-05-12T16:13:52.959Z,10.70
2018-05-12T16:16:21.281Z,10.33
2018-05-12T16:18:49.625Z,13.83
2018-05-12T16:21:18.008Z,10.60
2018-05-12T16:23:46.327Z,9.07
2018-05-12T16:26:14.692Z,12.47
2018-05-12T16:28:43.098Z,11.57
2018-05-12T16:31:11.476Z,9.50
2018-05-12T16:33:41.116Z,8.47
2018-05-12T16:36:09.453Z,9.53
2018-05-12T16:38:37.789Z,9.60
2018-05-12T16:41:06.113Z,10.10
2018-05-12T16:43:34.542Z,10.50
2018-05-12T16:46:03.099Z,12.97
2018-05-12T16:48:31.849Z,11.07
2018-05-12T16:51:00.678Z,11.53
2018-05-12T16:53:29.305Z,12.43
2018-05-12T16:55:57.711Z,12.40
2018-05-12T16:58:28.183Z,12.93
2018-05-12T17:00:57.886Z,11.43
2018-05-12T17:03:28.965Z,11.33
2018-05-12T17:05:58.233Z,12.80
2018-05-12T17:08:30.795Z,12.50
2018-05-12T17:10:59.253Z,13.90
2018-05-12T17:13:29.384Z,14.50
2018-05-12T17:15:57.921Z,13.63
2018-05-12T17:18:26.502Z,13.97
2018-05-12T17:20:55.285Z,13.53
2018-05-12T17:23:24.123Z,13.87
2018-05-12T17:25:52.667Z,13.93
2018-05-12T17:28:21.059Z,13.90
2018-05-12T17:30:49.473Z,14.23
2018-05-12T17:33:17.879Z,12.23
2018-05-12T17:35:46.345Z,13.07
2018-05-12T17:38:14.780Z,13.93
2018-05-12T17:40:43.308Z,14.20
2018-05-12T17:43:12.713Z,13.70
2018-05-12T17:45:51.278Z,13.23
2018-05-12T17:48:20.072Z,12.97
2018-05-12T17:50:49.617Z,15.00
2018-05-12T17:53:18.185Z,15.00
2018-05-12T17:55:47.025Z,13.40
2018-05-12T17:58:20.260Z,13.70
2018-05-12T18:00:52.716Z,13.73
2018-05-12T18:03:22.539Z,14.03
2018-05-12T18:05:58.077Z,13.23
2018-05-12T18:08:26.717Z,11.80
2018-05-12T18:10:56.054Z,14.07
2018-05-12T18:13:27.711Z,12.67
2018-05-12T18:15:56.564Z,12.97
2018-05-12T18:18:26.346Z,14.00
2018-05-12T18:20:54.867Z,13.33
2018-05-12T18:23:23.948Z,14.33
2018-05-12T18:25:53.428Z,13.00
2018-05-12T18:28:21.773Z,11.93
2018-05-12T18:30:50.892Z,11.67
2018-05-12T18:33:19.360Z,12.47
2018-05-12T18:35:49.557Z,11.87
2018-05-12T18:38:17.915Z,12.90
2018-05-12T18:40:46.246Z,12.97
2018-05-12T18:43:14.622Z,11.60
2018-05-12T18:45:42.959Z,12.60
2018-05-12T18:48:11.296Z,13.37
2018-05-12T18:50:39.634Z,11.77
2018-05-12T18:53:08.054Z,12.30
2018-05-12T18:55:39.034Z,13.50
2018-05-12T18:58:15.667Z,12.10
2018-05-12T19:00:56.150Z,12.63
2018-05-12T19:03:28.723Z,13.63
2018-05-12T19:05:59.357Z,12.97
2018-05-12T19:08:28.404Z,12.13
2018-05-12T19:10:56.772Z,13.17
2018-05-12T19:13:25.128Z,12.63
2018-05-12T19:15:53.504Z,13.53
2018-05-12T19:18:21.826Z,13.33
2018-05-12T19:20:50.239Z,13.73
2018-05-12T19:23:18.639Z,14.13
2018-05-12T19:25:47.457Z,14.87
2018-05-12T19:28:16.126Z,14.77
2018-05-12T19:30:44.560Z,12.80
2018-05-12T19:33:12.887Z,12.80
2018-05-12T19:35:41.214Z,15.57
2018-05-12T19:38:09.651Z,15.03
2018-05-12T19:40:38.101Z,14.73
2018-05-12T19:43:07.054Z,15.13
2018-05-12T19:45:36.473Z,15.43
2018-05-12T19:48:05.605Z,15.80
2018-05-12T19:50:34.918Z,16.63
2018-05-12T19:53:06.392Z,15.17
2018-05-12T19:55:38.847Z,15.27
2018-05-12T19:58:08.510Z,16.77
2018-05-12T20:00:37.873Z,16.90
2018-05-12T20:03:06.288Z,15.40
2018-05-12T20:05:36.815Z,16.30
2018-05-12T20:08:05.214Z,16.57
2018-05-12T20:10:33.773Z,15.53
2018-05-12T20:13:03.396Z,19.03
2018-05-12T20:15:33.261Z,17.37
2018-05-12T20:18:02.258Z,19.43
2018-05-12T20:20:30.816Z,20.33
2018-05-12T20:22:59.828Z,20.63
2018-05-12T20:25:28.780Z,20.90
2018-05-12T20:28:04.486Z,20.77
2018-05-12T20:30:33.014Z,20.77
2018-05-12T20:33:02.492Z,21.27
2018-05-12T20:35:31.459Z,20.97
2018-05-12T20:38:00.786Z,20.90
2018-05-12T20:40:31.968Z,20.07
2018-05-12T20:43:03.101Z,20.10
2018-05-12T20:45:32.194Z,20.73
2018-05-12T20:48:01.076Z,22.13
2018-05-12T20:50:30.125Z,22.93
2018-05-12T20:52:59.634Z,22.57
2018-05-12T20:55:28.528Z,43.37
2018-05-12T20:57:57.051Z,125.67
2018-05-12T21:00:27.035Z,105.37
2018-05-12T21:02:56.298Z,65.07
2018-05-12T21:05:25.354Z,33.07
2018-05-12T21:07:54.143Z,27.60
2018-05-12T21:10:24.559Z,23.67
2018-05-12T21:12:52.971Z,24.53
2018-05-12T21:15:21.605Z,23.07
2018-05-12T21:17:53.140Z,24.63
2018-05-12T21:20:23.574Z,23.83
2018-05-12T21:22:54.380Z,24.87
2018-05-12T21:25:22.901Z,24.17
2018-05-12T21:27:52.643Z,25.33
2018-05-12T21:30:21.224Z,23.70
2018-05-12T21:32:49.629Z,24.30
2018-05-12T21:35:19.378Z,23.57
2018-05-12T21:37:48.270Z,25.50
2018-05-12T21:40:17.002Z,24.23
2018-05-12T21:42:46.460Z,24.60
2018-05-12T21:45:14.862Z,25.63
2018-05-12T21:47:43.605Z,26.50
2018-05-12T21:50:12.012Z,29.57
2018-05-12T21:52:40.616Z,25.53
2018-05-12T21:55:09.404Z,26.03
2018-05-12T21:57:39.594Z,27.87
2018-05-12T22:00:09.185Z,25.63
2018-05-12T22:02:38.008Z,27.20
2018-05-12T22:05:06.746Z,26.37
2018-05-12T22:07:35.685Z,27.47
2018-05-12T22:10:04.755Z,28.37
2018-05-12T22:12:33.532Z,26.83
2018-05-12T22:15:02.115Z,27.17
2018-05-12T22:17:30.486Z,28.00
2018-05-12T22:20:00.618Z,28.53
2018-05-12T22:22:33.825Z,27.70
2018-05-12T22:25:06.611Z,26.23
2018-05-12T22:27:35.476Z,29.00
2018-05-12T22:30:04.003Z,29.70
2018-05-12T22:32:33.137Z,28.53
2018-05-12T22:35:02.660Z,28.07
2018-05-12T22:37:31.446Z,28.03
2018-05-12T22:40:01.413Z,28.97
2018-05-12T22:42:30.348Z,30.17
2018-05-12T22:44:58.737Z,29.80
2018-05-12T22:47:27.137Z,28.63
2018-05-12T22:49:55.665Z,32.33
2018-05-12T22:52:25.302Z,31.43
2018-05-12T22:54:53.669Z,30.63
2018-05-12T22:57:22.087Z,29.60
2018-05-12T22:59:50.551Z,29.27
2018-05-12T23:02:19.044Z,29.30
2018-05-12T23:04:49.068Z,31.33
2018-05-12T23:07:17.476Z,31.17
2018-05-12T23:09:45.946Z,30.40
2018-05-12T23:12:14.619Z,33.23
2018-05-12T23:14:43.816Z,32.30
2018-05-12T23:17:18.654Z,32.80
2018-05-12T23:19:47.496Z,32.90
2018-05-12T23:22:15.920Z,31.50
2018-05-12T23:24:44.470Z,32.13
2018-05-12T23:27:13.403Z,33.47
2018-05-12T23:29:42.926Z,34.03
2018-05-12T23:32:11.394Z,35.23
2018-05-12T23:34:39.785Z,35.30
2018-05-12T23:37:08.191Z,34.40
2018-05-12T23:39:37.068Z,35.33
2018-05-12T23:42:05.515Z,35.67
2018-05-12T23:44:35.073Z,34.13
2018-05-12T23:47:04.275Z,33.07
2018-05-12T23:49:33.599Z,34.73
2018-05-12T23:52:03.710Z,33.53
2018-05-12T23:54:34.051Z,34.50
2018-05-12T23:57:02.766Z,34.27
2018-05-12T23:59:31.678Z,35.47
